Time;durP1;ratioP1;P1;durP2;ratioP2;P2;SDS_P1;SDS_P2;PMS_P1;PMS_P2;Temp;Humidity;BMP_temperature;BMP_pressure;BME280_temperature;BME280_humidity;BME280_pressure;Samples;Min_cycle;Max_cycle;Signal;HPM_P1;HPM_P2
2021/05/17 00:00:55;;;;;;;0.73;0.70;;;10.80;99.90;;;;;;5035212;28;20469;-80
2021/05/17 00:03:20;;;;;;;1.57;0.60;;;10.80;99.90;;;;;;5034454;28;20223;-79
2021/05/17 00:05:46;;;;;;;0.80;0.50;;;10.80;99.90;;;;;;5034544;28;20276;-81
2021/05/17 00:08:12;;;;;;;6.10;0.77;;;10.80;99.90;;;;;;5034365;28;20279;-80
2021/05/17 00:10:39;;;;;;;2.53;0.60;;;10.80;99.90;;;;;;5034871;28;20436;-80
2021/05/17 00:13:05;;;;;;;2.90;0.70;;;10.80;99.90;;;;;;5034564;28;20498;-80
2021/05/17 00:15:31;;;;;;;2.57;0.60;;;10.70;99.90;;;;;;5034573;28;20434;-81
2021/05/17 00:17:57;;;;;;;1.10;0.57;;;10.70;99.90;;;;;;5034640;28;20178;-80
2021/05/17 00:20:24;;;;;;;0.93;0.80;;;10.70;99.90;;;;;;5034705;28;20209;-80
2021/05/17 00:22:51;;;;;;;1.60;0.50;;;10.70;99.90;;;;;;5039013;28;20517;-80
2021/05/17 00:25:22;;;;;;;0.93;0.50;;;10.70;99.90;;;;;;5041987;28;20520;-80
2021/05/17 00:27:50;;;;;;;1.57;0.60;;;10.60;99.90;;;;;;5036617;28;20422;-80
2021/05/17 00:30:17;;;;;;;1.67;0.50;;;10.60;99.90;;;;;;5036807;28;20954;-80
2021/05/17 00:32:43;;;;;;;1.77;0.80;;;10.60;99.90;;;;;;5017785;28;20435;-78
2021/05/17 00:35:10;;;;;;;1.97;0.60;;;10.60;99.90;;;;;;5035552;28;20512;-80
2021/05/17 00:37:35;;;;;;;1.60;0.50;;;10.60;99.90;;;;;;5035803;28;20176;-80
2021/05/17 00:40:01;;;;;;;7.63;0.60;;;10.50;99.90;;;;;;5035578;28;20524;-80
2021/05/17 00:42:27;;;;;;;0.60;0.50;;;10.50;99.90;;;;;;5016834;28;20558;-80
2021/05/17 00:44:53;;;;;;;2.80;0.70;;;10.50;99.90;;;;;;5035049;28;20192;-81
2021/05/17 00:47:19;;;;;;;0.87;0.67;;;10.50;99.90;;;;;;5017798;28;20426;-80
2021/05/17 00:49:46;;;;;;;2.00;0.50;;;10.50;99.90;;;;;;5035286;28;20499;-81
2021/05/17 00:52:13;;;;;;;2.83;0.60;;;10.50;99.90;;;;;;5034452;28;20179;-80
2021/05/17 00:54:39;;;;;;;0.93;0.60;;;10.50;99.90;;;;;;5034961;28;20482;-81
2021/05/17 00:57:06;;;;;;;0.87;0.57;;;10.50;99.90;;;;;;5034989;28;20434;-80
2021/05/17 00:59:32;;;;;;;0.80;0.60;;;10.50;99.90;;;;;;5034082;28;20465;-79
2021/05/17 01:01:59;;;;;;;2.00;0.50;;;10.50;99.90;;;;;;5033059;28;20434;-80
2021/05/17 01:04:24;;;;;;;3.03;0.70;;;10.60;99.90;;;;;;5033741;28;20406;-81
2021/05/17 01:06:53;;;;;;;4.10;0.70;;;10.60;99.90;;;;;;5035044;28;20484;-80
2021/05/17 01:09:20;;;;;;;1.53;0.57;;;10.50;99.90;;;;;;5034617;28;20259;-80
2021/05/17 01:11:46;;;;;;;3.50;0.63;;;10.60;99.90;;;;;;5036508;28;20412;-80
2021/05/17 01:14:15;;;;;;;1.27;0.70;;;10.60;99.90;;;;;;5035421;28;20434;-80
2021/05/17 01:16:40;;;;;;;0.63;0.60;;;10.50;99.90;;;;;;5034646;28;20177;-80
2021/05/17 01:19:11;;;;;;;1.33;0.40;;;10.60;99.90;;;;;;5034109;28;20458;-81
2021/05/17 01:21:39;;;;;;;1.27;0.70;;;10.50;99.90;;;;;;5033904;28;20187;-81
2021/05/17 01:24:05;;;;;;;1.13;0.70;;;10.50;99.90;;;;;;5033937;28;20412;-80
2021/05/17 01:26:35;;;;;;;1.47;0.80;;;10.50;99.90;;;;;;5016073;28;20522;-80
2021/05/17 01:29:04;;;;;;;6.00;0.60;;;10.50;99.90;;;;;;5033106;28;20442;-80
2021/05/17 01:31:29;;;;;;;0.70;0.63;;;10.40;99.90;;;;;;5033506;28;20418;-78
2021/05/17 01:33:56;;;;;;;1.23;0.70;;;10.40;99.90;;;;;;5015337;28;20485;-82
2021/05/17 01:36:22;;;;;;;0.60;0.60;;;10.40;99.90;;;;;;5015443;28;20471;-80
2021/05/17 01:38:51;;;;;;;2.70;1.00;;;10.30;99.90;;;;;;4995041;28;20806;-81
2021/05/17 01:41:19;;;;;;;2.00;0.90;;;10.30;99.90;;;;;;5020161;28;20471;-80
2021/05/17 01:43:51;;;;;;;1.20;0.57;;;10.30;99.90;;;;;;5032638;28;20455;-80
2021/05/17 01:46:23;;;;;;;4.83;0.70;;;10.30;99.90;;;;;;5013420;28;20485;-80
2021/05/17 01:48:48;;;;;;;1.63;0.50;;;10.20;99.90;;;;;;4999586;28;20449;-80
2021/05/17 01:51:17;;;;;;;3.57;1.23;;;10.20;99.90;;;;;;5003359;28;20467;-80
2021/05/17 01:53:44;;;;;;;1.60;0.60;;;10.20;99.90;;;;;;4997407;28;20208;-80
2021/05/17 01:56:11;;;;;;;3.17;0.60;;;10.10;99.90;;;;;;5013052;28;20481;-80
2021/05/17 01:58:37;;;;;;;1.17;0.50;;;10.10;99.90;;;;;;5019381;28;20462;-80
2021/05/17 02:01:17;;;;;;;0.50;0.50;;;10.10;99.90;;;;;;5016984;28;20505;-80
2021/05/17 02:03:45;;;;;;;1.90;0.57;;;10.10;99.90;;;;;;5014006;28;20434;-80
2021/05/17 02:06:13;;;;;;;1.00;0.60;;;10.10;99.90;;;;;;5013876;28;20806;-80
2021/05/17 02:08:44;;;;;;;0.70;0.70;;;10.10;99.90;;;;;;5034421;28;20436;-80
2021/05/17 02:11:12;;;;;;;0.93;0.50;;;10.20;99.90;;;;;;5012211;28;20547;-80
2021/05/17 02:13:39;;;;;;;1.70;0.50;;;10.10;99.90;;;;;;5031012;28;20441;-80
2021/05/17 02:16:05;;;;;;;0.70;0.50;;;10.20;99.90;;;;;;5033266;28;20439;-80
2021/05/17 02:18:35;;;;;;;0.73;0.70;;;10.20;99.90;;;;;;5032171;28;20442;-79
2021/05/17 02:21:00;;;;;;;3.53;0.60;;;10.20;99.90;;;;;;5030228;28;20806;-80
2021/05/17 02:23:26;;;;;;;0.83;0.60;;;10.20;99.90;;;;;;5030410;28;20437;-80
2021/05/17 02:25:52;;;;;;;1.10;0.53;;;10.20;99.90;;;;;;5005924;28;20450;-77
2021/05/17 02:28:18;;;;;;;1.00;0.50;;;10.20;99.90;;;;;;5005592;28;20194;-80
2021/05/17 02:30:45;;;;;;;1.17;0.73;;;10.30;99.90;;;;;;5037559;28;20744;-80
2021/05/17 02:33:12;;;;;;;0.40;0.40;;;10.30;99.90;;;;;;5034390;28;20448;-80
2021/05/17 02:35:38;;;;;;;3.73;0.60;;;10.30;99.90;;;;;;5018997;28;21080;-80
2021/05/17 02:38:05;;;;;;;0.70;0.50;;;10.30;99.90;;;;;;5021677;28;20451;-80
2021/05/17 02:40:31;;;;;;;3.33;0.60;;;10.30;99.90;;;;;;5028668;28;20472;-80
2021/05/17 02:43:11;;;;;;;1.17;0.50;;;10.30;99.90;;;;;;5036522;28;20435;-80
2021/05/17 02:45:38;;;;;;;0.60;0.40;;;10.20;99.90;;;;;;5030674;28;20806;-81
2021/05/17 02:48:05;;;;;;;1.63;0.50;;;10.20;99.90;;;;;;5036684;28;20479;-80
2021/05/17 02:50:44;;;;;;;1.10;0.50;;;10.30;99.90;;;;;;5024467;28;20811;-81
2021/05/17 02:53:37;;;;;;;0.80;0.50;;;10.20;99.90;;;;;;5016684;28;20482;-80
2021/05/17 02:56:14;;;;;;;0.60;0.60;;;10.30;99.90;;;;;;5031779;28;20528;-80
2021/05/17 02:58:42;;;;;;;1.13;0.40;;;10.20;99.90;;;;;;5043939;28;20508;-80
2021/05/17 03:01:14;;;;;;;0.50;0.50;;;10.20;99.90;;;;;;5018802;28;20483;-80
2021/05/17 03:03:47;;;;;;;0.93;0.50;;;10.20;99.90;;;;;;5038977;28;20442;-80
2021/05/17 03:06:27;;;;;;;4.60;0.60;;;10.10;99.90;;;;;;5038411;28;20459;-80
2021/05/17 03:09:05;;;;;;;2.10;0.40;;;10.10;99.90;;;;;;5025267;28;20423;-80
2021/05/17 03:11:31;;;;;;;0.60;0.50;;;10.10;99.90;;;;;;5027955;28;20434;-80
2021/05/17 03:13:58;;;;;;;0.60;0.50;;;10.10;99.90;;;;;;5019422;28;20407;-80
2021/05/17 03:16:26;;;;;;;0.80;0.50;;;10.10;99.90;;;;;;5022313;28;20458;-80
2021/05/17 03:18:54;;;;;;;0.50;0.40;;;10.10;99.90;;;;;;5039428;28;21023;-82
2021/05/17 03:21:22;;;;;;;4.20;0.60;;;10.10;99.90;;;;;;5038045;28;20850;-80
2021/05/17 03:23:48;;;;;;;0.73;0.50;;;10.20;99.90;;;;;;5018367;28;20439;-80
2021/05/17 03:26:16;;;;;;;1.63;0.50;;;10.20;99.90;;;;;;5021746;28;21021;-80
2021/05/17 03:28:42;;;;;;;1.80;0.50;;;10.20;99.90;;;;;;5022893;28;20426;-80
2021/05/17 03:31:07;;;;;;;2.90;0.60;;;10.20;99.90;;;;;;5021728;28;20437;-81
2021/05/17 03:33:33;;;;;;;0.70;0.40;;;10.20;99.90;;;;;;5037697;28;20261;-81
2021/05/17 03:35:58;;;;;;;0.40;0.40;;;10.20;99.90;;;;;;5038756;28;20195;-81
2021/05/17 03:38:24;;;;;;;0.70;0.50;;;10.20;99.90;;;;;;5017787;28;20555;-81
2021/05/17 03:40:49;;;;;;;0.60;0.60;;;10.10;99.90;;;;;;5036029;28;20195;-81
2021/05/17 03:43:15;;;;;;;2.00;0.53;;;10.10;99.90;;;;;;5034886;28;20235;-80
2021/05/17 03:45:40;;;;;;;0.60;0.40;;;10.00;99.90;;;;;;5021547;28;20208;-81
2021/05/17 03:48:06;;;;;;;3.03;0.50;;;10.10;99.90;;;;;;5040016;28;20209;-81
2021/05/17 03:50:32;;;;;;;0.50;0.50;;;10.10;99.90;;;;;;5023639;28;20189;-80
2021/05/17 03:52:57;;;;;;;0.80;0.53;;;10.10;99.90;;;;;;5034987;28;20188;-83
2021/05/17 03:55:23;;;;;;;3.00;0.50;;;10.10;99.90;;;;;;5038242;28;20716;-80
2021/05/17 03:57:48;;;;;;;1.90;0.50;;;10.10;99.90;;;;;;5038866;28;20183;-81
2021/05/17 04:00:15;;;;;;;1.70;1.10;;;10.10;99.90;;;;;;5028472;28;20220;-81
2021/05/17 04:02:42;;;;;;;3.23;0.80;;;10.00;99.90;;;;;;5018484;28;20193;-82
2021/05/17 04:13:21;;;;;;;1.10;0.50;;;10.10;99.90;;;;;;5034200;28;20275;-83
2021/05/17 04:15:47;;;;;;;4.10;0.80;;;10.20;99.90;;;;;;5028864;28;20461;-76
2021/05/17 04:18:13;;;;;;;1.70;0.60;;;10.20;99.90;;;;;;5033216;28;20514;-78
2021/05/17 04:20:39;;;;;;;0.70;0.50;;;10.20;99.90;;;;;;5032419;28;20559;-76
2021/05/17 04:23:05;;;;;;;0.80;0.40;;;10.20;99.90;;;;;;5012981;28;20195;-76
2021/05/17 04:25:31;;;;;;;0.60;0.50;;;10.30;99.90;;;;;;5026585;28;20557;-76
2021/05/17 04:27:57;;;;;;;0.47;0.43;;;10.40;99.90;;;;;;5032710;28;20443;-76
2021/05/17 04:30:23;;;;;;;1.10;0.50;;;10.40;99.90;;;;;;5015333;28;20418;-76
2021/05/17 04:32:48;;;;;;;1.77;0.60;;;10.50;99.90;;;;;;5028870;28;20245;-76
2021/05/17 04:35:14;;;;;;;0.60;0.50;;;10.50;99.90;;;;;;5032195;28;20258;-78
2021/05/17 04:37:39;;;;;;;0.40;0.40;;;10.60;99.90;;;;;;5026110;28;20250;-76
2021/05/17 04:40:07;;;;;;;1.10;0.60;;;10.60;99.90;;;;;;5032757;28;20228;-77
2021/05/17 04:42:33;;;;;;;1.43;0.50;;;10.70;99.90;;;;;;5024603;28;20268;-77
2021/05/17 04:44:58;;;;;;;0.80;0.70;;;10.80;99.90;;;;;;5030200;28;21025;-76
2021/05/17 04:47:24;;;;;;;0.60;0.53;;;11.00;99.90;;;;;;5030597;28;20663;-77
2021/05/17 04:49:50;;;;;;;0.97;0.80;;;11.10;99.90;;;;;;5031496;28;20190;-76
2021/05/17 04:52:16;;;;;;;2.67;0.50;;;11.10;99.90;;;;;;5032017;28;20224;-76
2021/05/17 04:54:41;;;;;;;0.60;0.50;;;11.10;99.90;;;;;;5023962;28;20974;-71
2021/05/17 04:57:07;;;;;;;0.77;0.77;;;11.20;99.90;;;;;;5027104;28;20235;-73
2021/05/17 04:59:32;;;;;;;0.50;0.50;;;11.30;99.90;;;;;;5002830;28;20217;-72
2021/05/17 05:01:58;;;;;;;0.90;0.40;;;11.40;99.90;;;;;;5027175;28;20181;-73
2021/05/17 05:04:24;;;;;;;1.27;0.50;;;11.40;99.90;;;;;;5029707;28;20196;-72
2021/05/17 05:06:49;;;;;;;1.37;0.50;;;11.40;99.90;;;;;;5013461;28;20196;-73
2021/05/17 05:09:15;;;;;;;0.40;0.40;;;11.50;99.90;;;;;;5029949;28;20186;-73
2021/05/17 05:11:40;;;;;;;1.13;0.60;;;11.70;99.90;;;;;;5029933;28;20186;-73
2021/05/17 05:14:06;;;;;;;0.50;0.40;;;12.40;99.90;;;;;;5031102;28;20181;-73
2021/05/17 05:16:31;;;;;;;2.00;0.40;;;14.10;99.90;;;;;;5027744;28;20241;-73
2021/05/17 05:18:57;;;;;;;0.50;0.40;;;15.10;99.90;;;;;;5032492;28;20217;-73
2021/05/17 05:21:22;;;;;;;1.37;0.50;;;15.40;99.90;;;;;;5029504;28;20677;-72
2021/05/17 05:23:48;;;;;;;0.57;0.40;;;15.20;99.90;;;;;;5030873;28;20670;-73
2021/05/17 05:26:41;;;;;;;1.37;0.40;;;15.60;99.90;;;;;;5024406;28;20281;-73
2021/05/17 05:34:00;;;;;;;2.10;0.40;;;15.10;99.90;;;;;;5031374;28;20226;-73
2021/05/17 05:36:26;;;;;;;2.07;0.40;;;15.50;99.90;;;;;;5029653;28;20549;-72
2021/05/17 05:38:51;;;;;;;0.50;0.40;;;15.90;99.90;;;;;;5029529;28;20210;-72
2021/05/17 05:41:17;;;;;;;1.43;0.53;;;15.50;99.90;;;;;;5027317;28;20224;-73
2021/05/17 05:43:42;;;;;;;0.60;0.40;;;16.20;99.90;;;;;;5030993;28;20709;-73
2021/05/17 05:46:08;;;;;;;0.40;0.40;;;17.00;99.90;;;;;;5026789;28;20674;-72
2021/05/17 05:48:46;;;;;;;0.80;0.40;;;18.00;99.90;;;;;;5026803;28;20617;-72
2021/05/17 05:51:14;;;;;;;0.77;0.60;;;17.70;99.90;;;;;;5031666;28;20178;-73
2021/05/17 05:53:39;;;;;;;0.80;0.40;;;16.50;99.90;;;;;;5028949;28;20838;-74
2021/05/17 05:56:05;;;;;;;1.63;0.60;;;15.50;99.90;;;;;;5028849;28;20460;-73
2021/05/17 05:58:30;;;;;;;0.60;0.50;;;14.80;99.90;;;;;;5026548;28;20186;-71
2021/05/17 06:00:56;;;;;;;1.57;0.60;;;14.30;99.90;;;;;;5029543;28;20196;-73
2021/05/17 06:03:22;;;;;;;0.90;0.50;;;13.90;99.90;;;;;;5029055;28;20682;-72
2021/05/17 06:05:47;;;;;;;2.90;0.50;;;13.30;99.90;;;;;;5031136;28;20434;-72
2021/05/17 06:08:13;;;;;;;0.90;0.40;;;13.00;99.90;;;;;;5031282;28;20267;-72
2021/05/17 06:10:39;;;;;;;2.30;0.50;;;12.80;99.90;;;;;;5022271;28;20660;-72
2021/05/17 06:13:04;;;;;;;3.33;0.40;;;12.70;99.90;;;;;;5031070;28;20220;-73
2021/05/17 06:15:30;;;;;;;0.60;0.40;;;12.50;99.90;;;;;;5028223;28;20577;-72
2021/05/17 06:17:56;;;;;;;1.57;0.40;;;12.50;99.90;;;;;;5031457;28;20317;-73
2021/05/17 06:20:22;;;;;;;3.20;0.50;;;12.40;99.90;;;;;;5028369;28;20224;-73
2021/05/17 06:22:50;;;;;;;0.40;0.40;;;12.40;99.90;;;;;;5029584;28;20193;-72
2021/05/17 06:25:16;;;;;;;1.33;0.50;;;12.30;99.90;;;;;;5024060;28;20209;-72
2021/05/17 06:27:43;;;;;;;1.23;0.67;;;12.10;99.90;;;;;;5028028;28;20464;-72
2021/05/17 06:30:11;;;;;;;2.10;0.50;;;12.00;99.90;;;;;;5030741;28;20492;-73
2021/05/17 06:32:38;;;;;;;0.80;0.53;;;12.00;99.90;;;;;;5022771;28;20540;-73
2021/05/17 06:35:06;;;;;;;0.50;0.50;;;11.90;99.90;;;;;;5013166;28;20906;-73
2021/05/17 06:37:32;;;;;;;0.50;0.40;;;11.90;99.90;;;;;;5029243;28;20448;-71
2021/05/17 06:39:57;;;;;;;1.00;0.40;;;11.90;99.90;;;;;;5031289;28;20834;-72
2021/05/17 06:42:23;;;;;;;0.83;0.53;;;12.00;99.90;;;;;;5027973;28;20643;-72
2021/05/17 06:44:49;;;;;;;2.80;0.60;;;12.10;99.90;;;;;;5013331;28;20198;-72
2021/05/17 06:47:16;;;;;;;26.80;3.30;;;12.10;99.90;;;;;;5028884;28;20930;-72
2021/05/17 06:49:42;;;;;;;4.13;0.80;;;12.40;99.90;;;;;;5031050;28;20824;-73
2021/05/17 06:52:12;;;;;;;13.10;1.80;;;12.60;99.90;;;;;;5029252;28;20521;-72
2021/05/17 06:54:38;;;;;;;1.00;0.50;;;12.90;99.90;;;;;;5012626;28;20476;-73
2021/05/17 06:59:42;;;;;;;0.90;0.47;;;13.90;99.90;;;;;;5028218;28;20469;-73
2021/05/17 07:02:15;;;;;;;10.03;1.00;;;14.00;99.90;;;;;;5011156;28;20481;-73
2021/05/17 07:04:42;;;;;;;12.47;3.53;;;13.80;99.90;;;;;;5026933;28;20454;-73
2021/05/17 07:07:09;;;;;;;5.20;0.50;;;13.70;99.90;;;;;;5030568;28;20447;-73
2021/05/17 07:12:18;;;;;;;2.17;0.60;;;13.20;99.90;;;;;;5029359;28;20455;-73
2021/05/17 07:14:44;;;;;;;0.60;0.50;;;13.30;99.90;;;;;;5029987;28;20463;-73
2021/05/17 07:17:10;;;;;;;1.83;0.50;;;13.20;99.90;;;;;;5034388;28;20182;-73
2021/05/17 07:19:35;;;;;;;1.70;0.40;;;13.10;99.90;;;;;;5029819;28;20846;-72
2021/05/17 07:24:46;;;;;;;0.80;0.40;;;13.00;99.90;;;;;;5027150;28;20629;-73
2021/05/17 07:27:11;;;;;;;0.40;0.40;;;13.10;99.90;;;;;;5031430;28;20448;-73
2021/05/17 07:29:46;;;;;;;2.40;1.23;;;13.50;99.90;;;;;;5032322;28;20197;-74
2021/05/17 07:32:12;;;;;;;0.90;0.40;;;13.60;99.90;;;;;;5033654;28;20216;-74
2021/05/17 07:34:37;;;;;;;0.73;0.50;;;14.10;99.90;;;;;;5033480;28;20866;-73
2021/05/17 07:37:04;;;;;;;0.80;0.40;;;14.90;99.90;;;;;;5029585;28;20679;-74
2021/05/17 07:39:29;;;;;;;1.00;0.40;;;15.60;99.90;;;;;;5032905;28;20221;-74
2021/05/17 07:41:55;;;;;;;0.70;0.40;;;16.10;99.90;;;;;;5031444;28;20463;-74
2021/05/17 07:44:21;;;;;;;2.67;0.40;;;16.00;99.90;;;;;;5033521;28;20170;-73
2021/05/17 07:46:47;;;;;;;0.50;0.50;;;15.90;99.90;;;;;;5031983;28;20187;-74
2021/05/17 07:49:15;;;;;;;1.60;0.50;;;15.80;99.90;;;;;;5031009;28;20196;-74
2021/05/17 07:51:42;;;;;;;1.43;0.60;;;15.40;99.90;;;;;;5015837;28;20578;-74
2021/05/17 07:54:12;;;;;;;0.60;0.40;;;15.10;99.90;;;;;;5031514;28;20440;-74
2021/05/17 07:56:38;;;;;;;5.80;0.60;;;15.10;99.90;;;;;;5014976;28;20509;-74
2021/05/17 07:59:05;;;;;;;1.53;0.50;;;15.40;99.90;;;;;;5028343;28;20472;-74
2021/05/17 08:01:30;;;;;;;2.20;0.50;;;15.40;99.90;;;;;;5033558;28;20902;-74
2021/05/17 08:03:56;;;;;;;1.80;0.40;;;15.30;99.90;;;;;;5031090;28;20456;-74
2021/05/17 08:06:24;;;;;;;1.33;0.40;;;15.20;99.90;;;;;;5033204;28;20218;-74
2021/05/17 08:08:50;;;;;;;0.50;0.50;;;14.90;99.90;;;;;;5013156;28;20436;-74
2021/05/17 08:11:16;;;;;;;0.70;0.53;;;14.30;99.90;;;;;;5026596;28;20459;-73
2021/05/17 08:13:42;;;;;;;2.40;0.40;;;14.10;99.90;;;;;;5033196;28;20608;-71
2021/05/17 08:16:09;;;;;;;0.73;0.37;;;14.20;99.90;;;;;;4998944;28;20210;-70
2021/05/17 08:18:37;;;;;;;0.70;0.40;;;14.60;99.90;;;;;;4985359;28;20528;-70
2021/05/17 08:21:03;;;;;;;1.20;0.40;;;14.70;99.90;;;;;;5011980;28;20437;-71
2021/05/17 08:23:30;;;;;;;1.17;0.40;;;14.80;99.90;;;;;;5032553;28;20468;-70
2021/05/17 08:25:55;;;;;;;0.60;0.40;;;15.20;99.90;;;;;;5010776;28;20457;-72
2021/05/17 08:28:21;;;;;;;0.40;0.30;;;15.60;99.90;;;;;;5031580;28;20789;-71
2021/05/17 08:30:53;;;;;;;5.23;0.60;;;16.20;99.90;;;;;;5014233;28;20231;-72
2021/05/17 08:33:19;;;;;;;1.83;0.50;;;17.20;99.90;;;;;;5023599;28;20221;-72
2021/05/17 08:35:46;;;;;;;0.93;0.43;;;17.60;99.90;;;;;;5032240;28;20487;-73
2021/05/17 08:38:12;;;;;;;0.63;0.43;;;18.30;99.90;;;;;;5030881;28;20244;-72
2021/05/17 08:40:39;;;;;;;1.23;0.40;;;19.30;99.90;;;;;;5013568;28;20491;-73
2021/05/17 08:43:05;;;;;;;0.77;0.53;;;19.80;99.90;;;;;;5030158;28;20186;-73
2021/05/17 08:45:33;;;;;;;4.97;1.23;;;19.60;99.90;;;;;;5032665;28;20468;-73
2021/05/17 08:47:59;;;;;;;0.50;0.40;;;19.10;99.90;;;;;;5030174;28;20432;-73
2021/05/17 08:50:25;;;;;;;1.87;0.60;;;18.60;99.90;;;;;;5031806;28;20583;-73
2021/05/17 08:52:51;;;;;;;1.13;0.50;;;18.20;99.90;;;;;;5014667;28;20511;-73
2021/05/17 08:55:18;;;;;;;0.87;0.50;;;17.40;99.90;;;;;;5023839;28;20461;-72
2021/05/17 08:57:46;;;;;;;1.73;0.50;;;16.60;99.90;;;;;;5028550;28;20445;-72
2021/05/17 09:00:13;;;;;;;0.70;0.50;;;16.40;99.90;;;;;;5030504;28;20483;-72
2021/05/17 09:02:39;;;;;;;0.80;0.40;;;16.60;99.90;;;;;;5031978;28;20425;-72
2021/05/17 09:05:08;;;;;;;2.30;0.47;;;17.00;99.90;;;;;;5030133;28;20464;-73
2021/05/17 09:07:40;;;;;;;1.90;0.60;;;16.90;99.90;;;;;;5029633;28;21023;-72
2021/05/17 09:10:13;;;;;;;1.67;0.50;;;16.80;99.90;;;;;;5029517;28;21055;-72
2021/05/17 09:12:54;;;;;;;4.70;0.50;;;16.70;99.90;;;;;;5029389;28;20973;-72
2021/05/17 09:15:27;;;;;;;0.60;0.57;;;16.70;99.90;;;;;;5037918;28;20893;-73
2021/05/17 09:17:57;;;;;;;3.17;0.50;;;16.30;99.90;;;;;;5035919;28;20458;-73
2021/05/17 09:20:26;;;;;;;1.63;0.40;;;16.10;99.90;;;;;;5005043;28;20474;-73
2021/05/17 09:23:11;;;;;;;1.70;0.50;;;15.70;99.90;;;;;;5041165;28;20442;-72
2021/05/17 09:25:39;;;;;;;0.97;0.50;;;15.20;99.90;;;;;;5031790;28;20483;-73
2021/05/17 09:28:08;;;;;;;1.33;0.57;;;15.10;99.90;;;;;;5027415;28;20433;-73
2021/05/17 09:30:51;;;;;;;2.50;0.50;;;14.80;99.90;;;;;;5010988;28;20444;-72
2021/05/17 09:33:19;;;;;;;2.93;0.70;;;14.60;99.90;;;;;;5025192;28;20539;-73
2021/05/17 09:35:47;;;;;;;1.40;0.40;;;14.40;99.90;;;;;;5026559;28;20605;-73
2021/05/17 09:38:39;;;;;;;1.17;0.50;;;14.90;99.90;;;;;;5030013;28;20440;-73
2021/05/17 09:41:07;;;;;;;0.77;0.47;;;15.90;99.90;;;;;;5026623;28;20443;-73
2021/05/17 09:43:34;;;;;;;2.67;0.80;;;16.20;99.90;;;;;;5026407;28;20431;-73
2021/05/17 09:46:01;;;;;;;1.60;0.40;;;15.90;99.90;;;;;;5028784;28;20802;-72
2021/05/17 09:48:30;;;;;;;1.27;0.60;;;15.90;99.90;;;;;;5024583;28;20460;-73
2021/05/17 09:51:03;;;;;;;1.93;0.40;;;15.70;99.90;;;;;;5024725;28;20436;-73
2021/05/17 09:53:33;;;;;;;2.07;0.63;;;15.40;99.90;;;;;;5010686;28;20467;-73
2021/05/17 09:55:59;;;;;;;1.17;0.40;;;15.50;99.90;;;;;;5035690;28;20475;-73
2021/05/17 09:58:37;;;;;;;2.10;0.60;;;15.70;99.90;;;;;;5028074;28;20512;-74
2021/05/17 10:01:30;;;;;;;3.53;0.50;;;15.80;99.90;;;;;;5038529;28;20509;-73
2021/05/17 10:04:06;;;;;;;0.50;0.40;;;15.80;99.90;;;;;;5016632;28;20804;-72
2021/05/17 10:06:32;;;;;;;0.67;0.40;;;15.30;99.90;;;;;;5028399;28;20463;-73
2021/05/17 10:08:58;;;;;;;2.50;0.40;;;15.20;99.90;;;;;;5028492;28;20436;-72
2021/05/17 10:11:26;;;;;;;1.50;0.47;;;15.20;99.90;;;;;;5027092;28;20518;-72
2021/05/17 10:13:51;;;;;;;1.80;0.50;;;15.30;99.90;;;;;;5011174;28;20440;-71
2021/05/17 10:16:19;;;;;;;0.43;0.43;;;15.80;99.90;;;;;;5027989;28;20793;-72
2021/05/17 10:18:46;;;;;;;0.60;0.40;;;16.60;99.90;;;;;;5027308;28;20190;-72
2021/05/17 10:21:18;;;;;;;1.30;0.50;;;17.70;99.90;;;;;;5028504;28;20435;-72
2021/05/17 10:23:46;;;;;;;0.50;0.40;;;18.30;99.90;;;;;;5011767;28;20501;-73
2021/05/17 10:26:14;;;;;;;1.07;0.50;;;18.30;99.90;;;;;;5030639;28;20475;-72
2021/05/17 10:28:43;;;;;;;0.60;0.60;;;18.10;99.90;;;;;;5020159;28;20532;-75
2021/05/17 10:31:10;;;;;;;0.40;0.40;;;17.70;99.90;;;;;;5012950;28;21333;-72
2021/05/17 10:33:35;;;;;;;0.40;0.40;;;17.40;99.90;;;;;;5026158;28;20456;-72
2021/05/17 10:36:05;;;;;;;2.33;0.43;;;17.00;99.90;;;;;;5019197;28;20459;-74
2021/05/17 10:41:19;;;;;;;0.67;0.30;;;15.90;99.90;;;;;;5034935;28;20440;-73
2021/05/17 10:46:35;;;;;;;0.63;0.40;;;15.90;99.90;;;;;;5025100;28;20499;-73
2021/05/17 10:47:00;;;;;;;2.00;0.40;;;15.70;99.90;;;;;;5022971;28;20485;-73
2021/05/17 10:49:35;;;;;;;0.60;0.30;;;15.70;99.90;;;;;;5014738;28;20447;-73
2021/05/17 10:52:04;;;;;;;0.90;0.33;;;16.50;99.90;;;;;;5039312;28;20420;-73
2021/05/17 10:54:36;;;;;;;1.40;0.40;;;17.40;99.90;;;;;;5049350;28;20412;-73
2021/05/17 10:57:25;;;;;;;0.87;0.50;;;18.10;99.90;;;;;;5015925;28;20449;-73
2021/05/17 11:02:43;;;;;;;0.97;0.60;;;18.80;99.90;;;;;;5027968;28;20486;-73
2021/05/17 11:05:14;;;;;;;1.37;0.50;;;19.00;99.90;;;;;;5049881;28;20572;-73
2021/05/17 11:07:52;;;;;;;0.60;0.40;;;19.00;99.90;;;;;;5043986;28;20443;-74
2021/05/17 11:10:26;;;;;;;0.90;0.50;;;18.80;99.90;;;;;;5031744;28;20472;-73
2021/05/17 11:12:51;;;;;;;0.60;0.40;;;18.60;99.90;;;;;;5029044;28;20466;-73
2021/05/17 11:15:19;;;;;;;0.93;0.40;;;18.70;99.90;;;;;;5030856;28;20460;-73
2021/05/17 11:18:20;;;;;;;1.20;0.50;;;18.60;99.90;;;;;;5034572;28;20613;-73
2021/05/17 11:20:49;;;;;;;0.70;0.43;;;18.20;99.90;;;;;;5037422;28;20565;-73
2021/05/17 11:23:20;;;;;;;0.70;0.40;;;17.70;99.90;;;;;;5025670;28;20422;-73
2021/05/17 11:26:04;;;;;;;1.70;0.50;;;17.10;99.90;;;;;;5028911;28;20465;-73
2021/05/17 11:28:39;;;;;;;1.80;0.60;;;16.80;99.90;;;;;;5032206;28;20424;-73
2021/05/17 11:31:44;;;;;;;0.90;0.50;;;16.30;99.90;;;;;;5012411;28;20431;-73
2021/05/17 11:34:18;;;;;;;2.30;0.50;;;15.60;99.90;;;;;;5029977;28;20444;-72
2021/05/17 11:36:47;;;;;;;0.93;0.50;;;15.00;99.90;;;;;;5015068;28;21225;-72
2021/05/17 11:39:35;;;;;;;2.07;0.57;;;14.60;99.90;;;;;;5038339;28;20487;-73
2021/05/17 11:42:03;;;;;;;1.37;0.50;;;14.20;99.90;;;;;;5031254;28;20440;-72
2021/05/17 11:45:10;;;;;;;0.57;0.50;;;14.10;99.90;;;;;;5028630;28;20494;-72
2021/05/17 11:47:31;;;;;;;3.23;0.50;;;14.70;99.90;;;;;;5025086;28;20498;-73
2021/05/17 11:49:57;;;;;;;2.93;0.50;;;15.60;99.90;;;;;;5019508;28;20440;-72
2021/05/17 11:52:29;;;;;;;0.80;0.50;;;16.30;99.90;;;;;;5031334;28;20444;-73
2021/05/17 11:54:57;;;;;;;1.20;0.50;;;16.70;99.90;;;;;;5030674;28;20452;-72
2021/05/17 11:57:31;;;;;;;1.73;0.50;;;17.20;99.90;;;;;;5027455;28;20452;-72
2021/05/17 12:00:12;;;;;;;2.00;0.40;;;17.10;99.90;;;;;;5041729;28;20544;-72
2021/05/17 12:02:47;;;;;;;0.63;0.40;;;17.00;99.90;;;;;;5033424;28;20432;-74
2021/05/17 12:05:14;;;;;;;0.90;0.30;;;17.10;99.90;;;;;;5028378;28;20463;-73
2021/05/17 12:07:47;;;;;;;0.70;0.40;;;16.70;99.90;;;;;;5030404;28;20463;-72
2021/05/17 12:10:15;;;;;;;4.17;0.60;;;16.50;99.90;;;;;;5043320;28;20873;-72
2021/05/17 12:12:41;;;;;;;0.50;0.40;;;16.40;99.90;;;;;;5029835;28;20856;-72
2021/05/17 12:15:10;;;;;;;0.50;0.40;;;16.30;99.90;;;;;;5028972;28;20471;-72
2021/05/17 12:17:37;;;;;;;1.90;0.60;;;16.30;99.90;;;;;;5029379;28;21106;-72
2021/05/17 12:20:07;;;;;;;1.53;0.50;;;16.20;99.90;;;;;;5025365;28;20525;-72
2021/05/17 12:22:36;;;;;;;0.47;0.40;;;16.20;99.90;;;;;;5029906;28;20424;-72
2021/05/17 12:25:09;;;;;;;0.67;0.40;;;16.30;99.90;;;;;;5027060;28;20487;-73
2021/05/17 12:27:36;;;;;;;0.50;0.30;;;16.60;99.90;;;;;;5024982;28;20506;-72
2021/05/17 12:30:14;;;;;;;1.53;0.40;;;16.90;99.90;;;;;;5010692;28;20463;-72
2021/05/17 12:32:44;;;;;;;0.40;0.30;;;17.10;99.90;;;;;;5029798;28;20510;-72
2021/05/17 12:35:21;;;;;;;2.53;0.40;;;17.40;99.90;;;;;;5028428;28;20568;-73
2021/05/17 12:37:55;;;;;;;0.40;0.30;;;17.60;99.90;;;;;;5010083;28;20447;-72
2021/05/17 12:40:31;;;;;;;0.57;0.40;;;17.80;99.90;;;;;;5029424;28;20555;-72
2021/05/17 12:43:20;;;;;;;1.10;0.40;;;17.70;99.90;;;;;;5027080;28;20440;-72
2021/05/17 12:45:48;;;;;;;0.57;0.30;;;17.40;99.90;;;;;;5029875;28;20801;-72
2021/05/17 12:48:39;;;;;;;0.40;0.40;;;17.00;99.90;;;;;;5030523;28;20801;-72
2021/05/17 12:51:26;;;;;;;0.40;0.30;;;16.70;99.90;;;;;;5012363;28;20860;-72
2021/05/17 12:53:55;;;;;;;0.53;0.40;;;17.00;99.90;;;;;;5027524;28;20444;-71
2021/05/17 12:56:32;;;;;;;1.30;0.33;;;17.20;99.90;;;;;;5027603;28;20563;-72
2021/05/17 12:59:10;;;;;;;1.43;0.40;;;17.30;99.90;;;;;;5036320;28;20467;-73
2021/05/17 13:01:37;;;;;;;0.50;0.43;;;17.10;99.90;;;;;;5011421;28;20471;-73
2021/05/17 13:04:03;;;;;;;2.87;0.40;;;17.20;99.90;;;;;;5027320;28;20443;-72
2021/05/17 13:06:30;;;;;;;1.33;0.33;;;17.30;99.90;;;;;;5011109;28;20458;-73
2021/05/17 13:09:22;;;;;;;0.50;0.50;;;17.20;99.90;;;;;;5028959;28;20497;-73
2021/05/17 13:11:55;;;;;;;0.40;0.30;;;17.30;99.90;;;;;;5021994;28;20449;-73
2021/05/17 13:14:23;;;;;;;0.50;0.40;;;17.80;99.90;;;;;;5026069;28;20437;-72
2021/05/17 13:16:48;;;;;;;1.50;0.40;;;17.90;99.90;;;;;;5027292;28;20521;-72
2021/05/17 13:30:42;;;;;;;0.93;0.40;;;17.40;99.90;;;;;;5026336;28;20429;-73
2021/05/17 13:33:16;;;;;;;0.50;0.40;;;17.30;99.90;;;;;;5026478;28;20884;-74